Time;durP1;ratioP1;P1;durP2;ratioP2;P2;SDS_P1;SDS_P2;PMS_P1;PMS_P2;Temp;Humidity;BMP_temperature;BMP_pressure;BME280_temperature;BME280_humidity;BME280_pressure;Samples;Min_cycle;Max_cycle;Signal;HPM_P1;HPM_P2
2021/06/26 00:00:09;;;;;;;;;0.00;0.00;;;;;;;;4965959;28;8885;-86
2021/06/26 00:02:37;;;;;;;;;0.00;0.00;;;;;;;;4972945;28;8944;-86
2021/06/26 00:05:06;;;;;;;;;0.00;0.00;;;;;;;;4969571;28;8904;-87
2021/06/26 00:07:33;;;;;;;;;0.00;0.00;;;;;;;;4973143;28;8893;-88
2021/06/26 00:10:01;;;;;;;;;0.00;0.00;;;;;;;;4974658;28;9667;-86
2021/06/26 00:12:29;;;;;;;;;1.00;0.00;;;;;;;;4967005;28;8893;-85
2021/06/26 00:14:57;;;;;;;;;0.75;0.75;;;;;;;;4966531;28;8889;-87
2021/06/26 00:17:24;;;;;;;;;0.00;0.00;;;;;;;;4964853;28;8876;-87
2021/06/26 00:19:52;;;;;;;;;0.00;0.00;;;;;;;;4968472;28;8889;-83
2021/06/26 00:22:19;;;;;;;;;0.00;0.00;;;;;;;;4965291;28;8991;-85
2021/06/26 00:24:47;;;;;;;;;0.00;0.00;;;;;;;;4968819;28;8989;-87
2021/06/26 00:27:14;;;;;;;;;0.00;0.00;;;;;;;;4964805;28;8979;-87
2021/06/26 00:29:43;;;;;;;;;0.00;0.00;;;;;;;;4966610;28;8865;-88
2021/06/26 00:32:10;;;;;;;;;0.25;0.00;;;;;;;;4965831;28;8981;-87
2021/06/26 00:34:37;;;;;;;;;0.00;0.00;;;;;;;;4966937;28;8882;-86
2021/06/26 00:37:04;;;;;;;;;0.00;0.00;;;;;;;;4968133;28;8850;-84
2021/06/26 00:39:32;;;;;;;;;0.00;0.00;;;;;;;;4966294;28;8986;-84
2021/06/26 00:42:03;;;;;;;;;0.00;0.00;;;;;;;;4968301;28;9040;-87
2021/06/26 00:44:30;;;;;;;;;0.00;0.00;;;;;;;;4962174;28;8897;-88
2021/06/26 00:47:02;;;;;;;;;0.00;0.00;;;;;;;;4964105;28;8873;-87
2021/06/26 00:49:29;;;;;;;;;0.00;0.00;;;;;;;;4960021;28;8889;-86
2021/06/26 00:51:57;;;;;;;;;0.00;0.00;;;;;;;;4964928;28;8907;-86
2021/06/26 00:54:24;;;;;;;;;0.00;0.00;;;;;;;;4966581;28;8869;-89
2021/06/26 00:56:52;;;;;;;;;0.00;0.00;;;;;;;;4965805;28;8869;-88
2021/06/26 00:59:19;;;;;;;;;0.00;0.00;;;;;;;;4970463;28;9016;-87
2021/06/26 01:01:46;;;;;;;;;0.00;0.00;;;;;;;;4964855;28;10443;-86
2021/06/26 01:04:15;;;;;;;;;0.00;0.00;;;;;;;;4966518;28;8968;-84
2021/06/26 01:06:42;;;;;;;;;0.00;0.00;;;;;;;;4965666;28;9660;-85
2021/06/26 01:09:09;;;;;;;;;0.00;0.00;;;;;;;;4963658;28;8948;-85
2021/06/26 01:11:37;;;;;;;;;0.00;0.00;;;;;;;;4965574;28;8893;-84
2021/06/26 01:14:04;;;;;;;;;1.00;1.00;;;;;;;;4964888;28;8975;-84
2021/06/26 01:16:32;;;;;;;;;0.00;0.00;;;;;;;;4964772;28;8915;-88
2021/06/26 01:18:59;;;;;;;;;0.00;0.00;;;;;;;;4964566;28;9061;-82
2021/06/26 01:21:29;;;;;;;;;0.75;0.75;;;;;;;;4965501;28;8877;-82
2021/06/26 01:23:58;;;;;;;;;0.00;0.00;;;;;;;;4965538;28;8892;-88
2021/06/26 01:26:28;;;;;;;;;0.00;0.00;;;;;;;;4964073;28;8877;-88
2021/06/26 01:28:57;;;;;;;;;0.00;0.00;;;;;;;;4965894;28;8935;-86
2021/06/26 01:31:24;;;;;;;;;0.00;0.00;;;;;;;;4964748;28;8829;-86
2021/06/26 01:33:51;;;;;;;;;0.00;0.00;;;;;;;;4967037;28;8865;-83
2021/06/26 01:36:19;;;;;;;;;0.00;0.00;;;;;;;;4965080;28;8997;-86
2021/06/26 01:38:54;;;;;;;;;0.00;0.00;;;;;;;;4963751;28;8878;-88
2021/06/26 01:41:24;;;;;;;;;0.00;0.00;;;;;;;;4964303;28;8857;-87
2021/06/26 01:43:51;;;;;;;;;0.00;0.00;;;;;;;;4966557;28;8870;-86
2021/06/26 01:46:19;;;;;;;;;0.25;0.25;;;;;;;;4965312;28;8873;-87
2021/06/26 01:48:46;;;;;;;;;0.00;0.00;;;;;;;;4962867;28;8873;-86
2021/06/26 01:51:13;;;;;;;;;0.00;0.00;;;;;;;;4966214;28;8915;-85
2021/06/26 01:53:41;;;;;;;;;0.25;0.25;;;;;;;;4964046;28;8869;-83
2021/06/26 01:56:08;;;;;;;;;0.25;0.25;;;;;;;;4963184;28;8915;-86
2021/06/26 01:58:37;;;;;;;;;0.00;0.00;;;;;;;;4964635;28;8905;-84
2021/06/26 02:01:04;;;;;;;;;2.00;0.00;;;;;;;;4964329;28;8856;-86
2021/06/26 02:03:31;;;;;;;;;0.00;0.00;;;;;;;;4969533;28;8901;-87
2021/06/26 02:05:58;;;;;;;;;0.75;0.75;;;;;;;;4963749;28;8899;-85
2021/06/26 02:08:26;;;;;;;;;0.00;0.00;;;;;;;;4967567;28;8911;-83
2021/06/26 02:10:53;;;;;;;;;1.00;1.00;;;;;;;;4963727;28;8900;-84
2021/06/26 02:13:21;;;;;;;;;1.25;1.25;;;;;;;;4965871;28;8891;-85
2021/06/26 02:15:50;;;;;;;;;0.25;0.25;;;;;;;;4964141;28;9019;-85
2021/06/26 02:18:17;;;;;;;;;0.00;0.00;;;;;;;;4963616;28;8984;-85
2021/06/26 02:20:44;;;;;;;;;0.25;0.25;;;;;;;;4964630;28;8858;-85
2021/06/26 02:23:11;;;;;;;;;0.00;0.00;;;;;;;;4963840;28;8954;-85
2021/06/26 02:25:39;;;;;;;;;1.00;1.00;;;;;;;;4965434;28;8899;-85
2021/06/26 02:28:06;;;;;;;;;1.00;1.00;;;;;;;;4963627;28;8877;-83
2021/06/26 02:30:34;;;;;;;;;1.00;1.00;;;;;;;;4965120;28;8803;-86
2021/06/26 02:33:02;;;;;;;;;0.25;0.25;;;;;;;;4965719;28;8903;-87
2021/06/26 02:35:29;;;;;;;;;0.75;0.75;;;;;;;;4965233;28;8869;-86
2021/06/26 02:37:57;;;;;;;;;0.25;0.25;;;;;;;;4962301;28;8845;-85
2021/06/26 02:40:24;;;;;;;;;0.75;0.75;;;;;;;;4964855;28;8878;-86
2021/06/26 02:42:51;;;;;;;;;1.00;1.00;;;;;;;;4963873;28;8885;-83
2021/06/26 02:45:19;;;;;;;;;0.00;0.00;;;;;;;;4962936;28;8881;-85
2021/06/26 02:47:46;;;;;;;;;1.00;1.00;;;;;;;;4967096;28;8877;-88
2021/06/26 02:50:15;;;;;;;;;1.75;1.00;;;;;;;;4964836;28;8893;-87
2021/06/26 02:52:43;;;;;;;;;1.00;1.00;;;;;;;;4966799;28;8913;-86
2021/06/26 02:55:11;;;;;;;;;2.00;2.00;;;;;;;;4967546;28;8980;-87
2021/06/26 02:57:39;;;;;;;;;1.00;1.00;;;;;;;;4970189;28;8901;-87
2021/06/26 03:00:09;;;;;;;;;0.25;0.25;;;;;;;;4970568;28;9612;-85
2021/06/26 03:02:36;;;;;;;;;1.00;1.00;;;;;;;;4970677;28;9569;-84
2021/06/26 03:05:04;;;;;;;;;1.25;1.25;;;;;;;;4968478;28;8992;-89
2021/06/26 03:07:33;;;;;;;;;1.00;1.00;;;;;;;;4971216;28;8853;-88
2021/06/26 03:10:00;;;;;;;;;1.00;1.00;;;;;;;;4966508;28;8941;-82
2021/06/26 03:12:27;;;;;;;;;1.75;1.75;;;;;;;;4967993;28;8854;-88
2021/06/26 03:14:55;;;;;;;;;1.00;1.00;;;;;;;;4968785;28;8935;-89
2021/06/26 03:17:22;;;;;;;;;4.00;2.00;;;;;;;;4966497;28;8883;-87
2021/06/26 03:19:49;;;;;;;;;1.50;1.50;;;;;;;;4967845;28;8869;-87
2021/06/26 03:22:16;;;;;;;;;1.00;1.00;;;;;;;;4967690;28;9052;-87
2021/06/26 03:24:45;;;;;;;;;0.25;0.25;;;;;;;;4966442;28;8943;-87
2021/06/26 03:27:14;;;;;;;;;2.00;2.00;;;;;;;;4968302;28;8889;-85
2021/06/26 03:29:41;;;;;;;;;1.75;1.75;;;;;;;;4970674;28;8850;-86
2021/06/26 03:32:09;;;;;;;;;2.00;2.00;;;;;;;;4966496;28;8846;-86
2021/06/26 03:34:37;;;;;;;;;2.50;2.50;;;;;;;;4969329;28;8898;-88
2021/06/26 03:37:04;;;;;;;;;3.00;3.00;;;;;;;;4965730;28;8862;-88
2021/06/26 03:39:31;;;;;;;;;2.75;2.75;;;;;;;;4968952;28;9746;-86
2021/06/26 03:42:00;;;;;;;;;2.00;2.00;;;;;;;;4966333;28;8885;-88
2021/06/26 03:44:28;;;;;;;;;3.00;3.00;;;;;;;;4965780;28;9011;-84
2021/06/26 03:46:55;;;;;;;;;2.00;2.00;;;;;;;;4969076;28;8914;-85
2021/06/26 03:49:22;;;;;;;;;2.00;2.00;;;;;;;;4967726;28;8862;-84
2021/06/26 03:51:49;;;;;;;;;2.00;2.00;;;;;;;;4968937;28;8893;-86
2021/06/26 03:54:17;;;;;;;;;2.00;2.00;;;;;;;;4971199;28;8964;-87
2021/06/26 03:56:44;;;;;;;;;2.75;2.75;;;;;;;;4966681;28;8879;-89
2021/06/26 03:59:13;;;;;;;;;3.00;3.00;;;;;;;;4966974;28;8869;-87
2021/06/26 04:01:40;;;;;;;;;2.00;2.00;;;;;;;;4969053;28;9012;-87
2021/06/26 04:04:07;;;;;;;;;2.00;2.00;;;;;;;;4969739;28;8897;-84
2021/06/26 04:06:35;;;;;;;;;3.50;2.50;;;;;;;;4966082;28;8873;-85
2021/06/26 04:09:02;;;;;;;;;3.75;2.25;;;;;;;;4967004;28;9364;-87
2021/06/26 04:11:29;;;;;;;;;2.00;2.00;;;;;;;;4966067;28;8903;-88
2021/06/26 04:13:57;;;;;;;;;2.00;2.00;;;;;;;;4966813;28;8869;-84
2021/06/26 04:16:26;;;;;;;;;2.00;2.00;;;;;;;;4965276;28;8915;-85
2021/06/26 04:18:53;;;;;;;;;3.00;3.00;;;;;;;;4966780;28;8975;-88
2021/06/26 04:21:21;;;;;;;;;2.00;2.00;;;;;;;;4965035;28;8861;-85
2021/06/26 04:23:48;;;;;;;;;2.00;2.00;;;;;;;;4969058;28;9627;-91
2021/06/26 04:26:15;;;;;;;;;1.25;1.25;;;;;;;;4966655;28;8976;-84
2021/06/26 04:28:43;;;;;;;;;2.00;2.00;;;;;;;;4966994;28;8877;-89
2021/06/26 04:31:10;;;;;;;;;2.00;2.00;;;;;;;;4968750;28;8834;-83
2021/06/26 04:33:39;;;;;;;;;2.00;2.00;;;;;;;;4966037;28;8919;-87
2021/06/26 04:36:12;;;;;;;;;2.25;2.25;;;;;;;;4967694;28;8874;-85
2021/06/26 04:38:39;;;;;;;;;2.25;2.25;;;;;;;;4964878;28;8912;-88
2021/06/26 04:41:07;;;;;;;;;2.50;2.50;;;;;;;;4963522;28;9133;-90
2021/06/26 04:43:34;;;;;;;;;2.25;2.25;;;;;;;;4966138;28;8850;-85
2021/06/26 04:46:02;;;;;;;;;2.00;2.00;;;;;;;;4964731;28;8948;-82
2021/06/26 04:48:29;;;;;;;;;2.50;2.50;;;;;;;;4966624;28;8845;-83
2021/06/26 04:50:58;;;;;;;;;3.75;3.75;;;;;;;;4965342;28;8885;-84
2021/06/26 04:53:26;;;;;;;;;2.50;2.00;;;;;;;;4969098;28;8967;-82
2021/06/26 04:55:53;;;;;;;;;2.75;2.75;;;;;;;;4966783;28;9008;-85
2021/06/26 04:58:21;;;;;;;;;3.75;2.75;;;;;;;;4969218;28;8896;-87
2021/06/26 05:00:50;;;;;;;;;1.25;1.25;;;;;;;;4970036;28;9642;-90
2021/06/26 05:03:18;;;;;;;;;3.00;3.00;;;;;;;;4967856;28;8866;-82
2021/06/26 05:05:46;;;;;;;;;2.75;2.75;;;;;;;;4975787;28;8890;-83
2021/06/26 05:08:15;;;;;;;;;2.25;1.75;;;;;;;;4966197;28;8877;-85
2021/06/26 05:10:43;;;;;;;;;6.00;4.50;;;;;;;;4968146;28;9016;-82
2021/06/26 05:13:10;;;;;;;;;3.75;3.75;;;;;;;;4966435;28;8861;-85
2021/06/26 05:15:38;;;;;;;;;3.50;3.50;;;;;;;;4962286;28;8873;-88
2021/06/26 05:18:05;;;;;;;;;5.00;5.00;;;;;;;;4965756;28;8862;-89
2021/06/26 05:20:33;;;;;;;;;4.25;3.75;;;;;;;;4969908;28;8877;-84
2021/06/26 05:23:00;;;;;;;;;4.25;4.00;;;;;;;;4971206;28;8985;-85
2021/06/26 05:25:29;;;;;;;;;5.00;3.75;;;;;;;;4967451;28;8992;-85
2021/06/26 05:27:56;;;;;;;;;5.00;5.00;;;;;;;;4967553;28;9007;-84
2021/06/26 05:30:23;;;;;;;;;4.25;4.00;;;;;;;;4965445;28;8795;-84
2021/06/26 05:32:51;;;;;;;;;3.25;3.25;;;;;;;;4973874;28;8886;-83
2021/06/26 05:35:18;;;;;;;;;3.75;3.75;;;;;;;;4971147;28;8867;-89
2021/06/26 05:37:46;;;;;;;;;5.25;5.25;;;;;;;;4974520;28;8873;-85
2021/06/26 05:40:14;;;;;;;;;4.00;4.00;;;;;;;;4966114;28;8932;-87
2021/06/26 05:42:43;;;;;;;;;4.00;4.00;;;;;;;;4966972;28;8881;-90
2021/06/26 05:45:11;;;;;;;;;3.00;3.00;;;;;;;;4967599;28;8869;-88
2021/06/26 05:47:38;;;;;;;;;6.75;5.25;;;;;;;;4964482;28;9025;-88
2021/06/26 05:50:07;;;;;;;;;4.25;4.00;;;;;;;;4967334;28;8971;-88
2021/06/26 05:52:34;;;;;;;;;4.00;4.00;;;;;;;;4971188;28;8893;-87
2021/06/26 05:55:02;;;;;;;;;4.25;4.25;;;;;;;;4969960;28;8893;-84
2021/06/26 05:57:29;;;;;;;;;3.50;2.75;;;;;;;;4965160;28;9615;-85
2021/06/26 05:59:58;;;;;;;;;4.25;4.25;;;;;;;;4968198;28;8882;-82
2021/06/26 06:02:25;;;;;;;;;5.00;5.00;;;;;;;;4970928;28;8821;-85
2021/06/26 06:04:52;;;;;;;;;5.75;4.25;;;;;;;;4965068;28;8889;-83
2021/06/26 06:07:21;;;;;;;;;4.00;4.00;;;;;;;;4966047;28;8925;-83
2021/06/26 06:09:48;;;;;;;;;4.25;4.25;;;;;;;;4965296;28;9247;-82
2021/06/26 06:12:15;;;;;;;;;4.00;4.00;;;;;;;;4966349;28;8881;-88
2021/06/26 06:14:43;;;;;;;;;4.00;4.00;;;;;;;;4966114;28;8951;-84
2021/06/26 06:17:11;;;;;;;;;3.50;3.50;;;;;;;;4965226;28;8900;-81
2021/06/26 06:19:39;;;;;;;;;3.25;3.25;;;;;;;;4963250;28;8884;-86
2021/06/26 06:22:08;;;;;;;;;4.00;4.00;;;;;;;;4964117;28;8885;-92
2021/06/26 06:24:36;;;;;;;;;5.50;5.50;;;;;;;;4964987;28;8897;-90
2021/06/26 06:27:04;;;;;;;;;4.75;4.75;;;;;;;;4965664;28;8893;-89
2021/06/26 06:29:32;;;;;;;;;5.25;5.00;;;;;;;;4964560;28;8909;-91
2021/06/26 06:31:59;;;;;;;;;4.00;4.00;;;;;;;;4963154;28;8940;-85
2021/06/26 06:34:28;;;;;;;;;5.25;5.25;;;;;;;;4967517;28;8881;-89
2021/06/26 06:36:55;;;;;;;;;8.00;5.00;;;;;;;;4963408;28;8977;-77
2021/06/26 06:39:24;;;;;;;;;5.00;5.00;;;;;;;;4964146;28;8885;-85
2021/06/26 06:41:51;;;;;;;;;4.00;4.00;;;;;;;;4966093;28;8885;-84
2021/06/26 06:44:18;;;;;;;;;4.00;4.00;;;;;;;;4966902;28;8874;-84
2021/06/26 06:46:45;;;;;;;;;4.50;4.50;;;;;;;;4965243;28;9016;-84
2021/06/26 06:49:13;;;;;;;;;5.75;5.75;;;;;;;;4962547;28;8972;-82
2021/06/26 06:51:44;;;;;;;;;5.00;5.00;;;;;;;;4963323;28;8849;-84
2021/06/26 06:54:12;;;;;;;;;2.50;2.00;;;;;;;;4963875;28;9024;-84
2021/06/26 06:56:39;;;;;;;;;8.00;4.75;;;;;;;;4963680;28;8897;-85
2021/06/26 06:59:06;;;;;;;;;4.00;4.00;;;;;;;;4966317;28;8877;-85
2021/06/26 07:01:33;;;;;;;;;7.00;5.50;;;;;;;;4969267;28;8958;-84
2021/06/26 07:04:01;;;;;;;;;5.00;5.00;;;;;;;;4964543;28;8914;-83
2021/06/26 07:06:28;;;;;;;;;3.25;3.00;;;;;;;;4972497;28;9429;-85
2021/06/26 07:08:57;;;;;;;;;4.50;4.50;;;;;;;;4965850;28;8877;-85
2021/06/26 07:11:26;;;;;;;;;5.00;5.00;;;;;;;;4963211;28;8889;-86
2021/06/26 07:13:53;;;;;;;;;6.00;6.00;;;;;;;;4964012;28;9648;-85
2021/06/26 07:16:20;;;;;;;;;5.00;5.00;;;;;;;;4969643;28;9016;-84
2021/06/26 07:18:48;;;;;;;;;5.25;5.25;;;;;;;;4964075;28;8954;-86
2021/06/26 07:21:15;;;;;;;;;5.00;5.00;;;;;;;;4969801;28;8874;-84
2021/06/26 07:23:42;;;;;;;;;5.25;4.00;;;;;;;;4966231;28;8909;-81
2021/06/26 07:26:11;;;;;;;;;2.50;2.50;;;;;;;;4962429;28;8861;-83
2021/06/26 07:28:38;;;;;;;;;4.00;3.25;;;;;;;;4963500;28;8869;-82
2021/06/26 07:31:05;;;;;;;;;4.25;4.25;;;;;;;;4960423;28;8829;-75
2021/06/26 07:33:32;;;;;;;;;5.50;5.50;;;;;;;;4962842;28;8870;-76
2021/06/26 07:36:00;;;;;;;;;4.00;4.00;;;;;;;;4961274;28;8990;-74
2021/06/26 07:38:27;;;;;;;;;5.75;5.75;;;;;;;;4962207;28;8956;-74
2021/06/26 07:40:54;;;;;;;;;6.25;4.75;;;;;;;;4962897;28;8873;-76
2021/06/26 07:43:24;;;;;;;;;3.50;3.50;;;;;;;;4968278;28;8908;-76
2021/06/26 07:45:52;;;;;;;;;4.25;4.25;;;;;;;;4964618;28;8881;-76
2021/06/26 07:48:19;;;;;;;;;4.00;4.00;;;;;;;;4966288;28;8905;-77
2021/06/26 07:50:50;;;;;;;;;6.50;6.50;;;;;;;;4966355;28;8899;-78
2021/06/26 07:53:17;;;;;;;;;4.75;4.75;;;;;;;;4964364;28;9003;-78
2021/06/26 07:55:51;;;;;;;;;4.25;4.25;;;;;;;;4954311;28;9746;-80
2021/06/26 07:58:19;;;;;;;;;4.50;4.50;;;;;;;;4963745;28;9076;-78
2021/06/26 08:00:48;;;;;;;;;6.75;6.75;;;;;;;;4966159;28;8809;-79
2021/06/26 08:03:16;;;;;;;;;4.00;4.00;;;;;;;;4965846;28;8885;-77
2021/06/26 08:05:43;;;;;;;;;4.50;4.50;;;;;;;;4966749;28;8891;-76
2021/06/26 08:08:10;;;;;;;;;3.50;3.50;;;;;;;;4965727;28;8872;-71
2021/06/26 08:10:38;;;;;;;;;4.00;4.00;;;;;;;;4967575;28;8899;-78
2021/06/26 08:13:06;;;;;;;;;3.00;3.00;;;;;;;;4967990;28;8872;-74
2021/06/26 08:15:36;;;;;;;;;3.00;3.00;;;;;;;;4966139;28;8873;-78
2021/06/26 08:18:05;;;;;;;;;4.00;3.00;;;;;;;;4974011;28;8889;-77
2021/06/26 08:20:32;;;;;;;;;2.00;2.00;;;;;;;;4969637;28;8979;-76
2021/06/26 08:23:00;;;;;;;;;2.50;2.50;;;;;;;;4966884;28;8857;-78
2021/06/26 08:25:27;;;;;;;;;3.00;3.00;;;;;;;;4968163;28;9008;-76
2021/06/26 08:27:55;;;;;;;;;3.75;2.25;;;;;;;;4967004;28;8885;-76
2021/06/26 08:30:23;;;;;;;;;3.25;3.25;;;;;;;;4975732;28;8889;-84
2021/06/26 08:32:52;;;;;;;;;3.00;3.00;;;;;;;;4970204;28;8859;-82
2021/06/26 08:35:21;;;;;;;;;2.25;2.25;;;;;;;;4965283;28;8896;-79
2021/06/26 08:37:50;;;;;;;;;3.25;3.25;;;;;;;;4965159;28;8891;-77
2021/06/26 08:40:19;;;;;;;;;3.00;3.00;;;;;;;;4966950;28;8886;-80
2021/06/26 08:42:47;;;;;;;;;4.60;3.00;;;;;;;;4965666;28;9628;-79
2021/06/26 08:45:18;;;;;;;;;3.40;3.40;;;;;;;;4966636;28;8897;-82
2021/06/26 08:47:48;;;;;;;;;2.00;2.00;;;;;;;;4969329;28;8992;-78
2021/06/26 08:50:15;;;;;;;;;2.00;2.00;;;;;;;;4964629;28;9743;-76
2021/06/26 08:52:44;;;;;;;;;2.80;1.60;;;;;;;;4969789;28;8890;-81
2021/06/26 08:55:12;;;;;;;;;1.00;1.00;;;;;;;;4966966;28;8903;-78
2021/06/26 08:57:42;;;;;;;;;3.40;2.40;;;;;;;;4966061;28;8913;-86
2021/06/26 09:00:11;;;;;;;;;3.80;2.20;;;;;;;;4967377;28;8885;-90
2021/06/26 09:02:39;;;;;;;;;1.60;1.60;;;;;;;;4967212;28;8873;-84
2021/06/26 09:05:08;;;;;;;;;2.00;2.00;;;;;;;;4963650;28;8885;-92
2021/06/26 09:07:36;;;;;;;;;1.60;1.60;;;;;;;;4966596;28;8874;-86
2021/06/26 09:10:16;;;;;;;;;1.20;1.20;;;;;;;;4968335;28;9708;-89
2021/06/26 09:12:45;;;;;;;;;0.80;0.80;;;;;;;;4965593;28;9643;-89
2021/06/26 09:15:23;;;;;;;;;2.00;2.00;;;;;;;;4964213;28;8959;-87
2021/06/26 09:17:51;;;;;;;;;1.20;1.20;;;;;;;;4968343;28;8995;-91
2021/06/26 09:20:18;;;;;;;;;2.60;2.00;;;;;;;;4967788;28;9000;-91
2021/06/26 09:22:50;;;;;;;;;3.20;2.00;;;;;;;;4963579;28;8877;-94
2021/06/26 09:25:38;;;;;;;;;2.00;2.00;;;;;;;;4961132;28;8903;-91
2021/06/26 09:28:09;;;;;;;;;1.40;1.40;;;;;;;;4967234;28;8870;-92
2021/06/26 09:30:40;;;;;;;;;2.00;2.00;;;;;;;;4965548;28;8936;-89
2021/06/26 09:33:15;;;;;;;;;3.00;3.00;;;;;;;;4959235;28;8911;-86
2021/06/26 09:35:45;;;;;;;;;2.00;2.00;;;;;;;;4964646;28;8980;-88
2021/06/26 09:38:12;;;;;;;;;2.00;2.00;;;;;;;;4964758;28;8893;-88
2021/06/26 09:40:42;;;;;;;;;2.40;2.40;;;;;;;;4962835;28;8886;-91
2021/06/26 09:43:11;;;;;;;;;1.80;1.80;;;;;;;;4966498;28;8877;-84
2021/06/26 09:45:39;;;;;;;;;3.00;3.00;;;;;;;;4967309;28;8895;-89
2021/06/26 09:48:07;;;;;;;;;3.20;3.20;;;;;;;;4960558;28;8899;-90
2021/06/26 09:50:38;;;;;;;;;3.00;2.60;;;;;;;;4964856;28;9791;-91
2021/06/26 09:53:06;;;;;;;;;3.00;3.00;;;;;;;;4966604;28;8894;-91
2021/06/26 09:55:35;;;;;;;;;2.80;2.80;;;;;;;;4967003;28;9007;-93
2021/06/26 09:58:09;;;;;;;;;3.00;3.00;;;;;;;;4964841;28;8888;-84
2021/06/26 10:00:40;;;;;;;;;3.00;3.00;;;;;;;;4962468;28;8999;-82
2021/06/26 10:03:08;;;;;;;;;3.60;3.60;;;;;;;;4963402;28;8914;-82
2021/06/26 10:05:36;;;;;;;;;2.80;2.80;;;;;;;;4962565;28;8877;-93
2021/06/26 10:08:05;;;;;;;;;2.20;2.20;;;;;;;;4960086;28;8869;-83
2021/06/26 10:10:33;;;;;;;;;4.00;4.00;;;;;;;;4968749;28;8881;-87
2021/06/26 10:13:01;;;;;;;;;5.00;5.00;;;;;;;;4964638;28;8877;-91
2021/06/26 10:15:31;;;;;;;;;4.60;4.60;;;;;;;;4965207;28;8930;-79
2021/06/26 10:17:59;;;;;;;;;3.60;3.60;;;;;;;;4964069;28;8969;-79
2021/06/26 10:20:28;;;;;;;;;3.00;3.00;;;;;;;;4962476;28;8845;-88
2021/06/26 10:22:57;;;;;;;;;4.20;3.40;;;;;;;;4964498;28;9052;-84
2021/06/26 10:25:29;;;;;;;;;3.00;3.00;;;;;;;;4963252;28;8885;-92
2021/06/26 10:28:03;;;;;;;;;1.40;1.40;;;;;;;;4963394;28;8951;-80
2021/06/26 10:30:33;;;;;;;;;4.00;4.00;;;;;;;;4963898;28;8825;-82
2021/06/26 10:33:02;;;;;;;;;4.20;4.20;;;;;;;;4964814;28;9055;-87
2021/06/26 10:35:31;;;;;;;;;9.00;7.00;;;;;;;;4962912;28;8988;-81
2021/06/26 10:38:07;;;;;;;;;5.00;5.00;;;;;;;;4963773;28;8883;-88
2021/06/26 10:40:40;;;;;;;;;4.00;4.00;;;;;;;;4966607;28;8972;-81
2021/06/26 10:43:18;;;;;;;;;5.00;5.00;;;;;;;;4962572;28;9722;-85
2021/06/26 10:45:48;;;;;;;;;6.20;6.20;;;;;;;;4964946;28;8865;-86
2021/06/26 10:48:17;;;;;;;;;5.00;5.00;;;;;;;;4963692;28;9036;-86
2021/06/26 10:50:51;;;;;;;;;5.60;5.60;;;;;;;;4965674;28;8889;-88
2021/06/26 10:53:30;;;;;;;;;5.00;5.00;;;;;;;;4964190;28;8865;-87
2021/06/26 10:56:00;;;;;;;;;4.80;4.80;;;;;;;;4967346;28;8875;-84
2021/06/26 10:58:30;;;;;;;;;6.00;6.00;;;;;;;;4965051;28;8885;-86
2021/06/26 11:01:00;;;;;;;;;6.00;4.40;;;;;;;;4962896;28;8838;-90
2021/06/26 11:03:30;;;;;;;;;8.00;6.00;;;;;;;;4964209;28;8862;-91
2021/06/26 11:06:00;;;;;;;;;5.20;5.20;;;;;;;;4965280;28;8866;-94
2021/06/26 11:08:27;;;;;;;;;5.00;5.00;;;;;;;;4968745;28;8877;-77
2021/06/26 11:10:56;;;;;;;;;6.00;6.00;;;;;;;;4964932;28;8956;-83
2021/06/26 11:13:27;;;;;;;;;5.60;5.60;;;;;;;;4963707;28;8919;-75
2021/06/26 11:15:56;;;;;;;;;2.60;2.60;;;;;;;;4973771;28;9627;-76
2021/06/26 11:18:25;;;;;;;;;4.60;3.80;;;;;;;;4967870;28;8948;-77
2021/06/26 11:20:52;;;;;;;;;4.20;4.20;;;;;;;;4969150;28;8892;-83
2021/06/26 11:23:20;;;;;;;;;4.60;4.60;;;;;;;;4966866;28;8889;-79
2021/06/26 11:25:47;;;;;;;;;5.00;5.00;;;;;;;;4971246;28;8877;-82
2021/06/26 11:28:17;;;;;;;;;4.40;3.80;;;;;;;;4974268;28;9612;-83
2021/06/26 11:30:47;;;;;;;;;4.20;4.20;;;;;;;;4967050;28;8843;-85
2021/06/26 11:33:14;;;;;;;;;2.60;2.60;;;;;;;;4955631;28;8838;-82
2021/06/26 11:35:45;;;;;;;;;3.60;3.60;;;;;;;;4967695;28;8877;-92
2021/06/26 11:38:16;;;;;;;;;4.40;4.40;;;;;;;;4968380;28;9662;-86
2021/06/26 11:40:44;;;;;;;;;4.00;4.00;;;;;;;;4965831;28;8877;-87
2021/06/26 11:43:13;;;;;;;;;3.80;3.80;;;;;;;;4968539;28;8869;-86
2021/06/26 11:45:42;;;;;;;;;5.20;5.20;;;;;;;;4969845;28;8916;-85
2021/06/26 11:48:12;;;;;;;;;3.80;3.80;;;;;;;;4969903;28;8865;-86
2021/06/26 11:50:42;;;;;;;;;4.60;4.60;;;;;;;;4968598;28;8865;-86
2021/06/26 11:53:11;;;;;;;;;5.00;5.00;;;;;;;;4965134;28;8880;-84
2021/06/26 11:55:41;;;;;;;;;3.00;3.00;;;;;;;;4966969;28;8861;-80
2021/06/26 11:58:08;;;;;;;;;5.00;4.60;;;;;;;;4965550;28;8865;-81
2021/06/26 12:00:35;;;;;;;;;3.80;3.80;;;;;;;;4968012;28;9532;-81
2021/06/26 12:03:03;;;;;;;;;4.00;4.00;;;;;;;;4965862;28;8909;-87
2021/06/26 12:05:30;;;;;;;;;4.80;4.80;;;;;;;;4965419;28;8904;-84
2021/06/26 12:08:05;;;;;;;;;4.60;4.60;;;;;;;;4965062;28;8878;-83
2021/06/26 12:10:32;;;;;;;;;4.80;3.80;;;;;;;;4963424;28;9048;-84
2021/06/26 12:13:00;;;;;;;;;5.40;4.60;;;;;;;;4966858;28;8983;-82
2021/06/26 12:15:27;;;;;;;;;4.40;4.40;;;;;;;;4964812;28;8893;-85
2021/06/26 12:18:05;;;;;;;;;4.20;3.20;;;;;;;;4965889;28;8877;-83
2021/06/26 12:20:37;;;;;;;;;5.00;5.00;;;;;;;;4962981;28;8913;-88
2021/06/26 12:23:11;;;;;;;;;4.80;4.80;;;;;;;;4965375;28;8881;-81
2021/06/26 12:25:40;;;;;;;;;4.40;4.40;;;;;;;;4964970;28;8861;-86
2021/06/26 12:28:09;;;;;;;;;3.20;3.20;;;;;;;;4964903;28;8915;-83
2021/06/26 12:30:38;;;;;;;;;2.60;2.60;;;;;;;;4966019;28;8864;-86
2021/06/26 12:33:09;;;;;;;;;3.40;3.40;;;;;;;;4963495;28;8885;-85
2021/06/26 12:35:37;;;;;;;;;2.20;2.20;;;;;;;;4967286;28;8885;-82
2021/06/26 12:38:06;;;;;;;;;1.20;1.20;;;;;;;;4965356;28;8846;-83
2021/06/26 12:40:41;;;;;;;;;3.40;3.40;;;;;;;;4965833;28;8903;-78
2021/06/26 12:43:11;;;;;;;;;3.80;3.80;;;;;;;;4964721;28;8873;-79
2021/06/26 12:45:41;;;;;;;;;2.40;2.40;;;;;;;;4968357;28;8996;-77
2021/06/26 12:48:11;;;;;;;;;3.20;3.20;;;;;;;;4963020;28;8873;-80
2021/06/26 12:50:59;;;;;;;;;3.80;2.00;;;;;;;;4961983;28;8888;-81
2021/06/26 12:53:38;;;;;;;;;2.80;2.80;;;;;;;;4962663;28;9345;-81
2021/06/26 12:56:18;;;;;;;;;3.00;3.00;;;;;;;;4959179;28;8932;-77
2021/06/26 12:58:56;;;;;;;;;3.00;3.00;;;;;;;;4964620;28;8903;-78
2021/06/26 13:01:34;;;;;;;;;2.00;2.00;;;;;;;;4960092;28;8822;-78
2021/06/26 13:04:01;;;;;;;;;2.00;2.00;;;;;;;;4958427;28;8869;-80
2021/06/26 13:06:29;;;;;;;;;3.80;3.80;;;;;;;;4962741;28;8905;-76
2021/06/26 13:08:58;;;;;;;;;5.40;3.60;;;;;;;;4962671;28;8861;-76
2021/06/26 13:11:35;;;;;;;;;2.80;2.60;;;;;;;;4959546;28;8899;-75
2021/06/26 13:14:04;;;;;;;;;3.40;3.40;;;;;;;;4960825;28;8870;-79
2021/06/26 13:16:32;;;;;;;;;3.60;3.00;;;;;;;;4959413;28;8865;-76
2021/06/26 13:18:59;;;;;;;;;3.00;3.00;;;;;;;;4961798;28;8907;-78
2021/06/26 13:21:29;;;;;;;;;3.40;3.00;;;;;;;;4959830;28;8869;-82
2021/06/26 13:23:56;;;;;;;;;4.40;2.80;;;;;;;;4960830;28;8897;-82
2021/06/26 13:26:24;;;;;;;;;4.40;4.40;;;;;;;;4955785;28;8976;-79
2021/06/26 13:29:00;;;;;;;;;3.80;3.80;;;;;;;;4961295;28;8873;-85
2021/06/26 13:31:28;;;;;;;;;3.40;3.40;;;;;;;;4961976;28;9004;-83
2021/06/26 13:33:55;;;;;;;;;5.60;5.60;;;;;;;;4960540;28;8923;-81
2021/06/26 13:36:22;;;;;;;;;5.00;4.00;;;;;;;;4962180;28;8931;-85
2021/06/26 13:38:49;;;;;;;;;5.40;4.80;;;;;;;;4959471;28;8901;-81
2021/06/26 13:41:17;;;;;;;;;4.00;4.00;;;;;;;;4962092;28;8909;-77
2021/06/26 13:43:45;;;;;;;;;5.00;5.00;;;;;;;;4966348;28;9001;-83
2021/06/26 13:46:13;;;;;;;;;4.40;4.40;;;;;;;;4955002;28;8984;-79
2021/06/26 13:48:41;;;;;;;;;4.80;4.80;;;;;;;;4960520;28;8913;-81
2021/06/26 13:51:09;;;;;;;;;5.60;5.60;;;;;;;;4963560;28;8988;-89
2021/06/26 13:53:36;;;;;;;;;5.20;5.20;;;;;;;;4961252;28;8885;-82
2021/06/26 13:56:04;;;;;;;;;5.00;5.00;;;;;;;;4957940;28;8992;-82
2021/06/26 13:58:31;;;;;;;;;5.00;5.00;;;;;;;;4959762;28;9624;-84
2021/06/26 14:01:00;;;;;;;;;5.80;5.00;;;;;;;;4958872;28;8826;-82
2021/06/26 14:03:29;;;;;;;;;6.60;6.60;;;;;;;;4958668;28;8893;-81
2021/06/26 14:05:57;;;;;;;;;6.80;5.20;;;;;;;;4962373;28;8934;-80
2021/06/26 14:08:24;;;;;;;;;6.60;6.60;;;;;;;;4956393;28;9025;-79
2021/06/26 14:10:54;;;;;;;;;6.80;6.80;;;;;;;;4959237;28;8873;-79
2021/06/26 14:13:21;;;;;;;;;6.20;4.60;;;;;;;;4958696;28;8900;-80
2021/06/26 14:15:49;;;;;;;;;6.20;5.20;;;;;;;;4960751;28;8869;-81
2021/06/26 14:18:16;;;;;;;;;5.80;5.80;;;;;;;;4960433;28;9043;-82
2021/06/26 14:20:45;;;;;;;;;6.60;6.60;;;;;;;;4961002;28;8854;-80
2021/06/26 14:23:12;;;;;;;;;4.00;4.00;;;;;;;;4961977;28;9711;-80
2021/06/26 14:25:40;;;;;;;;;5.20;5.20;;;;;;;;4965884;28;8882;-79
2021/06/26 14:28:07;;;;;;;;;3.80;3.80;;;;;;;;4966978;28;9619;-81
2021/06/26 14:30:35;;;;;;;;;7.60;5.80;;;;;;;;4959227;28;8951;-78
2021/06/26 14:33:03;;;;;;;;;4.40;4.40;;;;;;;;4959509;28;8893;-78
2021/06/26 14:35:30;;;;;;;;;7.80;7.80;;;;;;;;4958994;28;8877;-78
2021/06/26 14:37:59;;;;;;;;;4.40;4.40;;;;;;;;4961693;28;8909;-78
2021/06/26 14:40:27;;;;;;;;;6.60;6.60;;;;;;;;4956083;28;8928;-83
2021/06/26 14:42:54;;;;;;;;;4.60;4.60;;;;;;;;4965272;28;8877;-85
2021/06/26 14:45:21;;;;;;;;;5.00;5.00;;;;;;;;4965451;28;8890;-85
2021/06/26 14:47:49;;;;;;;;;5.40;5.40;;;;;;;;4961230;28;8885;-83
2021/06/26 14:50:16;;;;;;;;;4.40;4.40;;;;;;;;4963117;28;8970;-84
2021/06/26 14:52:44;;;;;;;;;2.40;2.40;;;;;;;;4965390;28;9648;-87
2021/06/26 14:55:14;;;;;;;;;8.00;6.60;;;;;;;;4974209;28;8892;-83
2021/06/26 14:57:42;;;;;;;;;6.80;6.80;;;;;;;;4966761;28;8892;-83
2021/06/26 15:00:10;;;;;;;;;4.40;4.40;;;;;;;;4959337;28;8882;-82
2021/06/26 15:02:38;;;;;;;;;6.80;6.80;;;;;;;;4964944;28;8893;-83